FDX1685 KIND-KPHL
Flight info
| Callsign | FDX1685 |
|---|---|
| Flight time | 1h 34m |
| Altitude | 35000 |
| Route | MAREO5 BDOCK APE JST BOJID4 |
| Aircraft | B77L/H-SDE1E2E3FGHIJ2J3J4J5M1RWXY/LB1D1 |
Departure
| Time | 2026-05-06 00:27 |
|---|---|
| Airport | Indianapolis International Airport (KIND) |
Arrival
| Time | 2026-05-06 02:01 |
|---|---|
| Airport | Philadelphia International Airport (KPHL) |
| Time | Latitude | Longitude | Altitude | Speed | Heading |
|---|---|---|---|---|---|
| 2026-05-06 00:12 | 39.71252 | -86.28310 | 801 ft | 0 kts | 134° |
| 2026-05-06 00:15 | 39.71265 | -86.28327 | 800 ft | 4 kts | 138° |
| 2026-05-06 00:15 | 39.71278 | -86.28344 | 800 ft | 2 kts | 101° |
| 2026-05-06 00:15 | 39.71280 | -86.28370 | 800 ft | 4 kts | 69° |
| 2026-05-06 00:16 | 39.71266 | -86.28396 | 801 ft | 4 kts | 45° |
| 2026-05-06 00:16 | 39.71255 | -86.28411 | 801 ft | 1 kts | 44° |
| 2026-05-06 00:16 | 39.71254 | -86.28412 | 801 ft | 1 kts | 44° |
| 2026-05-06 00:19 | 39.71257 | -86.28408 | 801 ft | 4 kts | 44° |
| 2026-05-06 00:19 | 39.71290 | -86.28367 | 800 ft | 9 kts | 44° |
| 2026-05-06 00:20 | 39.71342 | -86.28300 | 800 ft | 11 kts | 43° |
| 2026-05-06 00:20 | 39.71410 | -86.28283 | 800 ft | 11 kts | 337° |
| 2026-05-06 00:20 | 39.71436 | -86.28306 | 801 ft | 0 kts | 320° |
| 2026-05-06 00:21 | 39.71447 | -86.28319 | 802 ft | 7 kts | 315° |
| 2026-05-06 00:21 | 39.71466 | -86.28386 | 803 ft | 9 kts | 259° |
| 2026-05-06 00:21 | 39.71431 | -86.28451 | 803 ft | 9 kts | 226° |
| 2026-05-06 00:21 | 39.71365 | -86.28535 | 804 ft | 18 kts | 224° |
| 2026-05-06 00:22 | 39.71274 | -86.28652 | 807 ft | 20 kts | 224° |
| 2026-05-06 00:22 | 39.71170 | -86.28783 | 806 ft | 21 kts | 224° |
| 2026-05-06 00:22 | 39.71066 | -86.28916 | 806 ft | 21 kts | 225° |
| 2026-05-06 00:22 | 39.70962 | -86.29048 | 803 ft | 21 kts | 224° |
| 2026-05-06 00:23 | 39.70860 | -86.29180 | 803 ft | 21 kts | 224° |
| 2026-05-06 00:23 | 39.70756 | -86.29313 | 803 ft | 21 kts | 224° |
| 2026-05-06 00:23 | 39.70649 | -86.29441 | 805 ft | 21 kts | 216° |
| 2026-05-06 00:23 | 39.70520 | -86.29526 | 807 ft | 21 kts | 213° |
| 2026-05-06 00:24 | 39.70446 | -86.29607 | 807 ft | 21 kts | 224° |
| 2026-05-06 00:24 | 39.70308 | -86.29783 | 805 ft | 21 kts | 224° |
| 2026-05-06 00:24 | 39.70238 | -86.29872 | 803 ft | 21 kts | 225° |
| 2026-05-06 00:24 | 39.70135 | -86.30003 | 802 ft | 21 kts | 224° |
| 2026-05-06 00:25 | 39.70031 | -86.30136 | 802 ft | 21 kts | 224° |
| 2026-05-06 00:25 | 39.69948 | -86.30263 | 804 ft | 13 kts | 254° |
| 2026-05-06 00:25 | 39.69962 | -86.30331 | 806 ft | 0 kts | 304° |
| 2026-05-06 00:26 | 39.69974 | -86.30351 | 806 ft | 8 kts | 309° |
| 2026-05-06 00:26 | 39.70040 | -86.30394 | 805 ft | 12 kts | 8° |
| 2026-05-06 00:26 | 39.70116 | -86.30321 | 802 ft | 23 kts | 44° |
| 2026-05-06 00:27 | 39.70386 | -86.29979 | 804 ft | 89 kts | 44° |
| 2026-05-06 00:27 | 39.70981 | -86.29223 | 802 ft | 148 kts | 44° |
| 2026-05-06 00:27 | 39.71781 | -86.28196 | 1094 ft | 166 kts | 43° |
| 2026-05-06 00:27 | 39.72642 | -86.27121 | 1737 ft | 173 kts | 40° |
| 2026-05-06 00:28 | 39.73503 | -86.26095 | 2548 ft | 168 kts | 41° |
| 2026-05-06 00:28 | 39.74083 | -86.24707 | 2925 ft | 192 kts | 75° |
| 2026-05-06 00:28 | 39.74293 | -86.22884 | 3173 ft | 217 kts | 77° |
| 2026-05-06 00:28 | 39.74552 | -86.20813 | 3424 ft | 245 kts | 77° |
| 2026-05-06 00:29 | 39.74849 | -86.18538 | 3893 ft | 264 kts | 78° |
| 2026-05-06 00:29 | 39.75174 | -86.16111 | 4529 ft | 279 kts | 80° |
| 2026-05-06 00:29 | 39.75495 | -86.13769 | 5247 ft | 285 kts | 81° |
| 2026-05-06 00:29 | 39.75851 | -86.11223 | 6117 ft | 289 kts | 81° |
| 2026-05-06 00:30 | 39.76220 | -86.08623 | 6916 ft | 295 kts | 81° |
| 2026-05-06 00:30 | 39.76603 | -86.05953 | 7632 ft | 303 kts | 81° |
| 2026-05-06 00:30 | 39.76996 | -86.03240 | 8358 ft | 310 kts | 81° |
| 2026-05-06 00:30 | 39.77402 | -86.00457 | 9106 ft | 316 kts | 82° |
| 2026-05-06 00:31 | 39.77815 | -85.97624 | 9849 ft | 322 kts | 82° |
| 2026-05-06 00:31 | 39.78235 | -85.94753 | 10445 ft | 333 kts | 81° |
| 2026-05-06 00:31 | 39.78683 | -85.91674 | 10661 ft | 360 kts | 81° |
| 2026-05-06 00:31 | 39.79166 | -85.88357 | 10867 ft | 386 kts | 81° |
| 2026-05-06 00:32 | 39.79675 | -85.84862 | 11270 ft | 405 kts | 81° |
| 2026-05-06 00:32 | 39.80209 | -85.81202 | 11954 ft | 417 kts | 81° |
| 2026-05-06 00:32 | 39.80756 | -85.77457 | 12765 ft | 426 kts | 80° |
| 2026-05-06 00:32 | 39.81315 | -85.73619 | 13573 ft | 436 kts | 80° |
| 2026-05-06 00:33 | 39.81882 | -85.69707 | 14344 ft | 443 kts | 80° |
| 2026-05-06 00:33 | 39.82456 | -85.65742 | 15228 ft | 446 kts | 80° |
| 2026-05-06 00:33 | 39.83030 | -85.61757 | 16133 ft | 449 kts | 79° |
| 2026-05-06 00:33 | 39.83607 | -85.57745 | 16972 ft | 454 kts | 79° |
| 2026-05-06 00:34 | 39.84190 | -85.53680 | 17788 ft | 460 kts | 79° |
| 2026-05-06 00:34 | 39.84778 | -85.49563 | 18518 ft | 466 kts | 79° |
| 2026-05-06 00:34 | 39.85372 | -85.45399 | 19216 ft | 470 kts | 79° |
| 2026-05-06 00:34 | 39.85962 | -85.41249 | 19953 ft | 473 kts | 79° |
| 2026-05-06 00:35 | 39.86562 | -85.37010 | 20707 ft | 477 kts | 79° |
| 2026-05-06 00:35 | 39.87164 | -85.32755 | 21432 ft | 480 kts | 79° |
| 2026-05-06 00:35 | 39.87769 | -85.28467 | 22126 ft | 485 kts | 79° |
| 2026-05-06 00:35 | 39.88338 | -85.24107 | 22833 ft | 489 kts | 83° |
| 2026-05-06 00:36 | 39.88658 | -85.19673 | 23519 ft | 492 kts | 86° |
| 2026-05-06 00:36 | 39.88894 | -85.15219 | 24095 ft | 496 kts | 87° |
| 2026-05-06 00:36 | 39.89112 | -85.10734 | 24612 ft | 502 kts | 87° |
| 2026-05-06 00:36 | 39.89333 | -85.06153 | 25115 ft | 507 kts | 86° |
| 2026-05-06 00:37 | 39.89563 | -85.01530 | 25632 ft | 513 kts | 86° |
| 2026-05-06 00:37 | 39.89799 | -84.96944 | 26146 ft | 517 kts | 86° |
| 2026-05-06 00:37 | 39.90047 | -84.92242 | 26671 ft | 522 kts | 86° |
| 2026-05-06 00:37 | 39.90298 | -84.87496 | 27193 ft | 526 kts | 85° |
| 2026-05-06 00:38 | 39.90550 | -84.82741 | 27690 ft | 531 kts | 85° |
| 2026-05-06 00:38 | 39.90805 | -84.77889 | 28184 ft | 536 kts | 85° |
| 2026-05-06 00:38 | 39.91057 | -84.73021 | 28672 ft | 540 kts | 85° |
| 2026-05-06 00:38 | 39.91305 | -84.68188 | 29134 ft | 545 kts | 85° |
| 2026-05-06 00:39 | 39.91560 | -84.63174 | 29614 ft | 549 kts | 85° |
| 2026-05-06 00:39 | 39.91811 | -84.58182 | 30049 ft | 552 kts | 85° |
| 2026-05-06 00:39 | 39.92057 | -84.53245 | 30406 ft | 555 kts | 85° |
| 2026-05-06 00:39 | 39.92306 | -84.48209 | 30775 ft | 559 kts | 85° |
| 2026-05-06 00:40 | 39.92554 | -84.43146 | 31154 ft | 561 kts | 84° |
| 2026-05-06 00:40 | 39.92802 | -84.38046 | 31535 ft | 564 kts | 84° |
| 2026-05-06 00:40 | 39.93048 | -84.32936 | 31893 ft | 567 kts | 84° |
| 2026-05-06 00:40 | 39.93294 | -84.27790 | 32251 ft | 570 kts | 84° |
| 2026-05-06 00:41 | 39.93601 | -84.22614 | 32617 ft | 572 kts | 80° |
| 2026-05-06 00:41 | 39.94183 | -84.17532 | 32971 ft | 572 kts | 76° |
| 2026-05-06 00:41 | 39.94893 | -84.12428 | 33352 ft | 573 kts | 74° |
| 2026-05-06 00:41 | 39.95637 | -84.07306 | 33731 ft | 575 kts | 73° |
| 2026-05-06 00:42 | 39.96384 | -84.02168 | 34059 ft | 577 kts | 74° |
| 2026-05-06 00:42 | 39.97117 | -83.97032 | 34470 ft | 576 kts | 74° |
| 2026-05-06 00:42 | 39.97833 | -83.91889 | 34854 ft | 576 kts | 74° |
| 2026-05-06 00:43 | 39.99230 | -83.81609 | 34835 ft | 576 kts | 75° |
| 2026-05-06 00:43 | 40.00595 | -83.71367 | 34844 ft | 570 kts | 75° |
| 2026-05-06 00:44 | 40.01952 | -83.61173 | 34860 ft | 569 kts | 75° |
| 2026-05-06 00:44 | 40.03302 | -83.51001 | 34859 ft | 569 kts | 75° |
| 2026-05-06 00:45 | 40.04637 | -83.40880 | 34860 ft | 569 kts | 75° |
| 2026-05-06 00:45 | 40.05970 | -83.30690 | 34855 ft | 570 kts | 75° |
| 2026-05-06 00:46 | 40.07296 | -83.20475 | 34848 ft | 570 kts | 75° |
| 2026-05-06 00:46 | 40.08614 | -83.10245 | 34845 ft | 571 kts | 75° |
| 2026-05-06 00:47 | 40.09921 | -83.00031 | 34845 ft | 570 kts | 75° |
| 2026-05-06 00:47 | 40.11214 | -82.89848 | 34850 ft | 570 kts | 75° |
| 2026-05-06 00:48 | 40.12493 | -82.79706 | 34848 ft | 569 kts | 75° |
| 2026-05-06 00:48 | 40.13771 | -82.69498 | 34843 ft | 568 kts | 75° |
| 2026-05-06 00:49 | 40.15021 | -82.59370 | 34846 ft | 567 kts | 76° |
| 2026-05-06 00:49 | 40.15791 | -82.49076 | 34853 ft | 568 kts | 81° |
| 2026-05-06 00:50 | 40.16344 | -82.38750 | 34845 ft | 568 kts | 81° |
| 2026-05-06 00:50 | 40.16893 | -82.28463 | 34840 ft | 566 kts | 81° |
| 2026-05-06 00:51 | 40.17469 | -82.18228 | 34835 ft | 566 kts | 81° |
| 2026-05-06 00:51 | 40.18052 | -82.07974 | 34839 ft | 565 kts | 81° |
| 2026-05-06 00:52 | 40.18628 | -81.97715 | 34843 ft | 565 kts | 81° |
| 2026-05-06 00:52 | 40.19186 | -81.87541 | 34839 ft | 564 kts | 81° |
| 2026-05-06 00:53 | 40.19736 | -81.77298 | 34837 ft | 564 kts | 81° |
| 2026-05-06 00:53 | 40.20278 | -81.67052 | 34835 ft | 563 kts | 81° |
| 2026-05-06 00:54 | 40.20808 | -81.56828 | 34839 ft | 563 kts | 81° |
| 2026-05-06 00:54 | 40.21332 | -81.46589 | 34841 ft | 562 kts | 81° |
| 2026-05-06 00:55 | 40.21842 | -81.36454 | 34840 ft | 561 kts | 81° |
| 2026-05-06 00:55 | 40.22345 | -81.26283 | 34840 ft | 559 kts | 81° |
| 2026-05-06 00:56 | 40.22836 | -81.16137 | 34839 ft | 558 kts | 82° |
| 2026-05-06 00:56 | 40.23316 | -81.06014 | 34842 ft | 556 kts | 82° |
| 2026-05-06 00:57 | 40.23787 | -80.95952 | 34841 ft | 555 kts | 82° |
| 2026-05-06 00:57 | 40.24250 | -80.85863 | 34850 ft | 554 kts | 82° |
| 2026-05-06 00:58 | 40.24703 | -80.75802 | 34851 ft | 553 kts | 82° |
| 2026-05-06 00:58 | 40.25146 | -80.65766 | 34850 ft | 551 kts | 82° |
| 2026-05-06 00:59 | 40.25577 | -80.55797 | 34857 ft | 551 kts | 82° |
| 2026-05-06 00:59 | 40.26002 | -80.45770 | 34853 ft | 550 kts | 82° |
| 2026-05-06 01:00 | 40.26416 | -80.35765 | 34880 ft | 548 kts | 82° |
| 2026-05-06 01:00 | 40.26820 | -80.25841 | 34886 ft | 547 kts | 82° |
| 2026-05-06 01:01 | 40.27216 | -80.15894 | 34880 ft | 546 kts | 82° |
| 2026-05-06 01:01 | 40.27602 | -80.05976 | 34855 ft | 545 kts | 83° |
| 2026-05-06 01:02 | 40.27978 | -79.96121 | 34848 ft | 544 kts | 83° |
| 2026-05-06 01:02 | 40.28345 | -79.86226 | 34849 ft | 543 kts | 83° |
| 2026-05-06 01:03 | 40.28706 | -79.76346 | 34859 ft | 542 kts | 83° |
| 2026-05-06 01:03 | 40.29055 | -79.66482 | 34868 ft | 541 kts | 83° |
| 2026-05-06 01:04 | 40.29397 | -79.56645 | 34880 ft | 540 kts | 83° |
| 2026-05-06 01:04 | 40.29727 | -79.46874 | 34884 ft | 539 kts | 84° |
| 2026-05-06 01:05 | 40.30051 | -79.37062 | 34877 ft | 539 kts | 84° |
| 2026-05-06 01:05 | 40.30365 | -79.27268 | 34880 ft | 538 kts | 84° |
| 2026-05-06 01:06 | 40.30672 | -79.17449 | 34884 ft | 536 kts | 84° |
| 2026-05-06 01:06 | 40.30966 | -79.07761 | 34897 ft | 535 kts | 84° |
| 2026-05-06 01:07 | 40.31256 | -78.97988 | 34884 ft | 534 kts | 84° |
| 2026-05-06 01:07 | 40.31536 | -78.88277 | 34901 ft | 533 kts | 84° |
| 2026-05-06 01:08 | 40.31755 | -78.78570 | 34899 ft | 533 kts | 86° |
| 2026-05-06 01:08 | 40.31710 | -78.69010 | 34551 ft | 521 kts | 88° |
| 2026-05-06 01:08 | 40.31666 | -78.64280 | 34184 ft | 515 kts | 88° |
| 2026-05-06 01:09 | 40.31634 | -78.59640 | 33777 ft | 500 kts | 88° |
| 2026-05-06 01:09 | 40.31619 | -78.56650 | 33475 ft | 490 kts | 88° |
| 2026-05-06 01:09 | 40.31603 | -78.52262 | 33036 ft | 475 kts | 88° |
| 2026-05-06 01:09 | 40.31592 | -78.47983 | 32608 ft | 462 kts | 89° |
| 2026-05-06 01:10 | 40.31580 | -78.43802 | 32217 ft | 454 kts | 89° |
| 2026-05-06 01:10 | 40.31566 | -78.39692 | 31829 ft | 450 kts | 89° |
| 2026-05-06 01:10 | 40.31548 | -78.35606 | 31448 ft | 446 kts | 90° |
| 2026-05-06 01:10 | 40.31528 | -78.31554 | 31076 ft | 443 kts | 90° |
| 2026-05-06 01:11 | 40.31507 | -78.27576 | 30710 ft | 440 kts | 90° |
| 2026-05-06 01:11 | 40.31484 | -78.23555 | 30357 ft | 440 kts | 90° |
| 2026-05-06 01:11 | 40.31459 | -78.19532 | 30019 ft | 444 kts | 91° |
| 2026-05-06 01:11 | 40.31434 | -78.15456 | 29617 ft | 449 kts | 91° |
| 2026-05-06 01:12 | 40.31406 | -78.11358 | 29217 ft | 451 kts | 91° |
| 2026-05-06 01:12 | 40.31378 | -78.07244 | 28819 ft | 452 kts | 91° |
| 2026-05-06 01:12 | 40.31348 | -78.03088 | 28411 ft | 453 kts | 91° |
| 2026-05-06 01:12 | 40.31317 | -77.98966 | 28019 ft | 453 kts | 91° |
| 2026-05-06 01:13 | 40.31283 | -77.94844 | 27630 ft | 453 kts | 92° |
| 2026-05-06 01:13 | 40.31249 | -77.90766 | 27223 ft | 453 kts | 92° |
| 2026-05-06 01:13 | 40.31212 | -77.86632 | 26855 ft | 453 kts | 92° |
| 2026-05-06 01:13 | 40.31174 | -77.82492 | 26455 ft | 453 kts | 92° |
| 2026-05-06 01:14 | 40.31095 | -77.74256 | 25820 ft | 441 kts | 92° |
| 2026-05-06 01:14 | 40.31056 | -77.70288 | 25381 ft | 428 kts | 92° |
| 2026-05-06 01:14 | 40.31017 | -77.66436 | 24944 ft | 418 kts | 93° |
| 2026-05-06 01:15 | 40.30975 | -77.62680 | 24584 ft | 416 kts | 93° |
| 2026-05-06 01:15 | 40.30932 | -77.58902 | 24209 ft | 413 kts | 93° |
| 2026-05-06 01:15 | 40.30889 | -77.55149 | 23843 ft | 411 kts | 93° |
| 2026-05-06 01:15 | 40.30845 | -77.51399 | 23477 ft | 409 kts | 94° |
| 2026-05-06 01:16 | 40.30800 | -77.47675 | 23066 ft | 407 kts | 94° |
| 2026-05-06 01:16 | 40.30753 | -77.43956 | 22637 ft | 405 kts | 94° |
| 2026-05-06 01:16 | 40.30706 | -77.40323 | 22229 ft | 403 kts | 94° |
| 2026-05-06 01:16 | 40.30658 | -77.36616 | 21805 ft | 401 kts | 94° |
| 2026-05-06 01:17 | 40.30608 | -77.32973 | 21392 ft | 399 kts | 94° |
| 2026-05-06 01:17 | 40.30558 | -77.29399 | 20987 ft | 396 kts | 94° |
| 2026-05-06 01:17 | 40.30508 | -77.25835 | 20588 ft | 390 kts | 94° |
| 2026-05-06 01:17 | 40.30460 | -77.22347 | 20155 ft | 378 kts | 95° |
| 2026-05-06 01:18 | 40.30411 | -77.18952 | 19750 ft | 367 kts | 95° |
| 2026-05-06 01:18 | 40.30361 | -77.15643 | 19341 ft | 358 kts | 95° |
| 2026-05-06 01:18 | 40.30312 | -77.12400 | 18978 ft | 359 kts | 95° |
| 2026-05-06 01:18 | 40.30258 | -77.09103 | 18653 ft | 363 kts | 95° |
| 2026-05-06 01:19 | 40.30072 | -77.05804 | 18369 ft | 360 kts | 107° |
| 2026-05-06 01:19 | 40.29434 | -77.02648 | 18106 ft | 358 kts | 112° |
| 2026-05-06 01:19 | 40.28676 | -76.99531 | 17718 ft | 361 kts | 113° |
| 2026-05-06 01:19 | 40.27906 | -76.96442 | 17337 ft | 361 kts | 113° |
| 2026-05-06 01:20 | 40.27136 | -76.93316 | 16946 ft | 359 kts | 112° |
| 2026-05-06 01:20 | 40.26385 | -76.90203 | 16563 ft | 357 kts | 112° |
| 2026-05-06 01:20 | 40.25649 | -76.87113 | 16187 ft | 356 kts | 112° |
| 2026-05-06 01:20 | 40.24918 | -76.84009 | 15804 ft | 356 kts | 111° |
| 2026-05-06 01:21 | 40.24190 | -76.80904 | 15437 ft | 356 kts | 111° |
| 2026-05-06 01:21 | 40.23467 | -76.77811 | 15063 ft | 356 kts | 111° |
| 2026-05-06 01:21 | 40.22745 | -76.74720 | 14686 ft | 356 kts | 111° |
| 2026-05-06 01:21 | 40.22015 | -76.71598 | 14304 ft | 357 kts | 111° |
| 2026-05-06 01:22 | 40.21287 | -76.68488 | 13932 ft | 358 kts | 111° |
| 2026-05-06 01:22 | 40.20558 | -76.65377 | 13557 ft | 359 kts | 110° |
| 2026-05-06 01:22 | 40.19830 | -76.62277 | 13140 ft | 360 kts | 110° |
| 2026-05-06 01:22 | 40.19094 | -76.59140 | 12722 ft | 361 kts | 110° |
| 2026-05-06 01:23 | 40.18352 | -76.55984 | 12267 ft | 363 kts | 110° |
| 2026-05-06 01:23 | 40.17606 | -76.52817 | 11804 ft | 364 kts | 110° |
| 2026-05-06 01:23 | 40.16867 | -76.49683 | 11395 ft | 365 kts | 110° |
| 2026-05-06 01:23 | 40.16107 | -76.46462 | 11024 ft | 363 kts | 110° |
| 2026-05-06 01:24 | 40.15380 | -76.43384 | 10945 ft | 360 kts | 110° |
| 2026-05-06 01:24 | 40.14636 | -76.40245 | 10949 ft | 361 kts | 110° |
| 2026-05-06 01:24 | 40.13897 | -76.37124 | 10962 ft | 361 kts | 110° |
| 2026-05-06 01:24 | 40.13151 | -76.33981 | 10946 ft | 361 kts | 110° |
| 2026-05-06 01:25 | 40.12405 | -76.30845 | 10947 ft | 360 kts | 110° |
| 2026-05-06 01:25 | 40.11766 | -76.27685 | 10943 ft | 360 kts | 102° |
| 2026-05-06 01:25 | 40.11468 | -76.24436 | 10954 ft | 361 kts | 96° |
| 2026-05-06 01:25 | 40.11299 | -76.21153 | 10954 ft | 362 kts | 95° |
| 2026-05-06 01:26 | 40.11145 | -76.17901 | 10961 ft | 364 kts | 95° |
| 2026-05-06 01:26 | 40.10969 | -76.14598 | 10956 ft | 364 kts | 96° |
| 2026-05-06 01:26 | 40.10769 | -76.11293 | 10960 ft | 365 kts | 96° |
| 2026-05-06 01:26 | 40.10553 | -76.07983 | 10955 ft | 366 kts | 97° |
| 2026-05-06 01:27 | 40.10327 | -76.04677 | 10978 ft | 366 kts | 97° |
| 2026-05-06 01:27 | 40.10097 | -76.01351 | 10754 ft | 371 kts | 97° |
| 2026-05-06 01:27 | 40.09861 | -75.97977 | 10256 ft | 364 kts | 97° |
| 2026-05-06 01:27 | 40.09642 | -75.94811 | 10067 ft | 333 kts | 97° |
| 2026-05-06 01:28 | 40.09442 | -75.91934 | 9878 ft | 307 kts | 97° |
| 2026-05-06 01:28 | 40.09246 | -75.89175 | 9581 ft | 302 kts | 97° |
| 2026-05-06 01:28 | 40.09056 | -75.86502 | 9285 ft | 297 kts | 97° |
| 2026-05-06 01:28 | 40.08865 | -75.83822 | 8970 ft | 293 kts | 98° |
| 2026-05-06 01:29 | 40.08679 | -75.81195 | 8664 ft | 289 kts | 98° |
| 2026-05-06 01:29 | 40.08493 | -75.78603 | 8371 ft | 283 kts | 99° |
| 2026-05-06 01:29 | 40.08309 | -75.76052 | 8100 ft | 283 kts | 99° |
| 2026-05-06 01:29 | 40.08138 | -75.73468 | 8049 ft | 289 kts | 97° |
| 2026-05-06 01:30 | 40.08010 | -75.70822 | 8038 ft | 296 kts | 97° |
| 2026-05-06 01:30 | 40.07891 | -75.68113 | 8012 ft | 299 kts | 97° |
| 2026-05-06 01:30 | 40.07771 | -75.65397 | 7998 ft | 298 kts | 97° |
| 2026-05-06 01:30 | 40.07651 | -75.62709 | 8007 ft | 297 kts | 97° |
| 2026-05-06 01:31 | 40.07527 | -75.60019 | 8019 ft | 296 kts | 97° |
| 2026-05-06 01:31 | 40.07404 | -75.57374 | 8007 ft | 296 kts | 97° |
| 2026-05-06 01:31 | 40.07277 | -75.54688 | 8003 ft | 296 kts | 97° |
| 2026-05-06 01:31 | 40.07149 | -75.52001 | 8009 ft | 295 kts | 97° |
| 2026-05-06 01:32 | 40.07022 | -75.49328 | 7857 ft | 295 kts | 97° |
| 2026-05-06 01:32 | 40.06895 | -75.46674 | 7541 ft | 293 kts | 97° |
| 2026-05-06 01:32 | 40.06765 | -75.44014 | 7126 ft | 293 kts | 98° |
| 2026-05-06 01:32 | 40.06635 | -75.41350 | 6692 ft | 293 kts | 98° |
| 2026-05-06 01:33 | 40.06506 | -75.38724 | 6529 ft | 286 kts | 98° |
| 2026-05-06 01:33 | 40.06376 | -75.36131 | 6427 ft | 288 kts | 99° |
| 2026-05-06 01:33 | 40.06244 | -75.33532 | 6320 ft | 294 kts | 99° |
| 2026-05-06 01:33 | 40.06107 | -75.30838 | 6205 ft | 296 kts | 99° |
| 2026-05-06 01:34 | 40.05972 | -75.28154 | 6102 ft | 294 kts | 98° |
| 2026-05-06 01:34 | 40.05839 | -75.25509 | 6029 ft | 292 kts | 99° |
| 2026-05-06 01:34 | 40.05541 | -75.22924 | 5987 ft | 283 kts | 118° |
| 2026-05-06 01:34 | 40.04518 | -75.20816 | 5839 ft | 272 kts | 146° |
| 2026-05-06 01:35 | 40.02966 | -75.19554 | 5700 ft | 259 kts | 164° |
| 2026-05-06 01:35 | 40.01319 | -75.18686 | 5446 ft | 259 kts | 167° |
| 2026-05-06 01:35 | 39.99624 | -75.17870 | 5058 ft | 260 kts | 168° |
| 2026-05-06 01:35 | 39.97923 | -75.17057 | 4655 ft | 259 kts | 168° |
| 2026-05-06 01:36 | 39.96230 | -75.16248 | 4256 ft | 254 kts | 168° |
| 2026-05-06 01:36 | 39.94642 | -75.15477 | 3991 ft | 232 kts | 168° |
| 2026-05-06 01:36 | 39.93237 | -75.14757 | 3971 ft | 203 kts | 168° |
| 2026-05-06 01:36 | 39.92003 | -75.14090 | 3977 ft | 191 kts | 169° |
| 2026-05-06 01:37 | 39.90805 | -75.13835 | 3992 ft | 153 kts | 203° |
| 2026-05-06 01:37 | 39.89953 | -75.14474 | 4006 ft | 142 kts | 224° |
| 2026-05-06 01:37 | 39.89264 | -75.15404 | 4003 ft | 144 kts | 232° |
| 2026-05-06 01:37 | 39.88793 | -75.16550 | 4001 ft | 145 kts | 245° |
| 2026-05-06 01:38 | 39.88504 | -75.17824 | 3834 ft | 155 kts | 260° |
| 2026-05-06 01:38 | 39.88616 | -75.19349 | 3326 ft | 180 kts | 269° |
| 2026-05-06 01:38 | 39.88774 | -75.21106 | 3162 ft | 204 kts | 269° |
| 2026-05-06 01:38 | 39.88775 | -75.22963 | 3019 ft | 210 kts | 257° |
| 2026-05-06 01:39 | 39.88559 | -75.24924 | 3004 ft | 227 kts | 255° |
| 2026-05-06 01:39 | 39.88302 | -75.26988 | 3003 ft | 231 kts | 255° |
| 2026-05-06 01:39 | 39.88041 | -75.29054 | 3012 ft | 231 kts | 255° |
| 2026-05-06 01:39 | 39.87784 | -75.31092 | 3005 ft | 229 kts | 255° |
| 2026-05-06 01:40 | 39.87522 | -75.33139 | 3000 ft | 228 kts | 255° |
| 2026-05-06 01:40 | 39.87258 | -75.35173 | 2998 ft | 228 kts | 255° |
| 2026-05-06 01:40 | 39.86994 | -75.37207 | 2987 ft | 229 kts | 255° |
| 2026-05-06 01:40 | 39.86592 | -75.39175 | 2993 ft | 224 kts | 238° |
| 2026-05-06 01:41 | 39.85500 | -75.40592 | 2995 ft | 225 kts | 210° |
| 2026-05-06 01:41 | 39.83949 | -75.40993 | 2995 ft | 237 kts | 181° |
| 2026-05-06 01:41 | 39.82335 | -75.40514 | 3004 ft | 243 kts | 170° |
| 2026-05-06 01:41 | 39.80723 | -75.39821 | 3008 ft | 245 kts | 169° |
| 2026-05-06 01:42 | 39.79105 | -75.39082 | 3001 ft | 246 kts | 168° |
| 2026-05-06 01:42 | 39.77490 | -75.38325 | 3002 ft | 247 kts | 168° |
| 2026-05-06 01:42 | 39.75863 | -75.37561 | 2995 ft | 248 kts | 168° |
| 2026-05-06 01:42 | 39.74238 | -75.36807 | 2994 ft | 248 kts | 168° |
| 2026-05-06 01:43 | 39.72608 | -75.36053 | 2988 ft | 248 kts | 168° |
| 2026-05-06 01:43 | 39.71011 | -75.35310 | 2990 ft | 246 kts | 168° |
| 2026-05-06 01:43 | 39.69410 | -75.34568 | 2983 ft | 243 kts | 168° |
| 2026-05-06 01:43 | 39.67821 | -75.33826 | 2994 ft | 243 kts | 168° |
| 2026-05-06 01:44 | 39.66223 | -75.33088 | 3000 ft | 243 kts | 168° |
| 2026-05-06 01:44 | 39.64634 | -75.32350 | 2994 ft | 243 kts | 168° |
| 2026-05-06 01:44 | 39.63051 | -75.31618 | 2989 ft | 243 kts | 168° |
| 2026-05-06 01:44 | 39.61445 | -75.30870 | 2990 ft | 243 kts | 168° |
| 2026-05-06 01:45 | 39.59851 | -75.30125 | 2996 ft | 243 kts | 168° |
| 2026-05-06 01:45 | 39.58256 | -75.29383 | 3007 ft | 244 kts | 168° |
| 2026-05-06 01:45 | 39.56651 | -75.28647 | 3018 ft | 246 kts | 168° |
| 2026-05-06 01:45 | 39.55027 | -75.27908 | 3020 ft | 247 kts | 168° |
| 2026-05-06 01:46 | 39.53433 | -75.27169 | 3019 ft | 246 kts | 165° |
| 2026-05-06 01:46 | 39.52040 | -75.25838 | 3107 ft | 262 kts | 135° |
| 2026-05-06 01:46 | 39.51305 | -75.23577 | 3797 ft | 288 kts | 104° |
| 2026-05-06 01:46 | 39.51438 | -75.20912 | 4801 ft | 305 kts | 75° |
| 2026-05-06 01:47 | 39.52410 | -75.18453 | 5622 ft | 309 kts | 50° |
| 2026-05-06 01:47 | 39.53907 | -75.16439 | 6056 ft | 312 kts | 40° |
| 2026-05-06 01:47 | 39.55540 | -75.14537 | 6022 ft | 316 kts | 39° |
| 2026-05-06 01:47 | 39.57171 | -75.12692 | 6023 ft | 313 kts | 38° |
| 2026-05-06 01:48 | 39.58822 | -75.10832 | 6014 ft | 310 kts | 38° |
| 2026-05-06 01:48 | 39.60456 | -75.08989 | 6038 ft | 311 kts | 38° |
| 2026-05-06 01:48 | 39.62072 | -75.07166 | 6020 ft | 312 kts | 38° |
| 2026-05-06 01:48 | 39.63714 | -75.05318 | 6039 ft | 312 kts | 38° |
| 2026-05-06 01:49 | 39.65365 | -75.03465 | 6003 ft | 313 kts | 38° |
| 2026-05-06 01:49 | 39.67010 | -75.01624 | 6006 ft | 313 kts | 38° |
| 2026-05-06 01:49 | 39.68561 | -74.99890 | 6009 ft | 312 kts | 38° |
| 2026-05-06 01:49 | 39.70290 | -74.97953 | 6029 ft | 312 kts | 38° |
| 2026-05-06 01:50 | 39.71938 | -74.96148 | 5983 ft | 306 kts | 32° |
| 2026-05-06 01:50 | 39.73813 | -74.95183 | 5828 ft | 283 kts | 356° |
| 2026-05-06 01:50 | 39.75692 | -74.95471 | 5630 ft | 270 kts | 340° |
| 2026-05-06 01:50 | 39.77564 | -74.95915 | 5370 ft | 277 kts | 343° |
| 2026-05-06 01:51 | 39.78998 | -74.96204 | 5155 ft | 280 kts | 344° |
| 2026-05-06 01:51 | 39.80920 | -74.96551 | 4863 ft | 278 kts | 345° |
| 2026-05-06 01:51 | 39.82845 | -74.96719 | 4522 ft | 279 kts | 1° |
| 2026-05-06 01:51 | 39.84681 | -74.95884 | 4240 ft | 292 kts | 31° |
| 2026-05-06 01:52 | 39.86111 | -74.93990 | 4083 ft | 293 kts | 59° |
| 2026-05-06 01:52 | 39.87063 | -74.91637 | 4016 ft | 297 kts | 66° |
| 2026-05-06 01:52 | 39.87927 | -74.89194 | 4015 ft | 291 kts | 68° |
| 2026-05-06 01:52 | 39.88833 | -74.86946 | 3958 ft | 270 kts | 50° |
| 2026-05-06 01:53 | 39.90225 | -74.85516 | 3925 ft | 241 kts | 14° |
| 2026-05-06 01:53 | 39.91765 | -74.85255 | 3930 ft | 216 kts | 339° |
| 2026-05-06 01:53 | 39.93188 | -74.85702 | 4147 ft | 210 kts | 330° |
| 2026-05-06 01:53 | 39.94317 | -74.86641 | 4229 ft | 180 kts | 295° |
| 2026-05-06 01:54 | 39.94647 | -74.88092 | 4085 ft | 163 kts | 256° |
| 2026-05-06 01:54 | 39.94269 | -74.89437 | 3856 ft | 157 kts | 245° |
| 2026-05-06 01:54 | 39.93892 | -74.90769 | 3605 ft | 156 kts | 248° |
| 2026-05-06 01:54 | 39.93576 | -74.92090 | 3357 ft | 153 kts | 249° |
| 2026-05-06 01:55 | 39.93285 | -74.93416 | 3109 ft | 151 kts | 249° |
| 2026-05-06 01:55 | 39.93009 | -74.94738 | 2871 ft | 152 kts | 248° |
| 2026-05-06 01:55 | 39.92738 | -74.96067 | 2627 ft | 151 kts | 248° |
| 2026-05-06 01:55 | 39.92471 | -74.97397 | 2388 ft | 151 kts | 248° |
| 2026-05-06 01:56 | 39.92206 | -74.98729 | 2144 ft | 151 kts | 247° |
| 2026-05-06 01:56 | 39.91950 | -75.00017 | 2083 ft | 148 kts | 246° |
| 2026-05-06 01:56 | 39.91687 | -75.01333 | 2048 ft | 153 kts | 246° |
| 2026-05-06 01:56 | 39.91416 | -75.02694 | 2020 ft | 155 kts | 246° |
| 2026-05-06 01:57 | 39.91155 | -75.04023 | 2008 ft | 146 kts | 246° |
| 2026-05-06 01:57 | 39.90910 | -75.05262 | 1985 ft | 138 kts | 245° |
| 2026-05-06 01:57 | 39.90670 | -75.06459 | 1995 ft | 138 kts | 246° |
| 2026-05-06 01:57 | 39.90427 | -75.07676 | 2015 ft | 139 kts | 246° |
| 2026-05-06 01:58 | 39.90196 | -75.08852 | 2016 ft | 127 kts | 245° |
| 2026-05-06 01:58 | 39.89986 | -75.09915 | 1899 ft | 115 kts | 245° |
| 2026-05-06 01:58 | 39.89793 | -75.10883 | 1771 ft | 110 kts | 243° |
| 2026-05-06 01:58 | 39.89595 | -75.11867 | 1624 ft | 114 kts | 243° |
| 2026-05-06 01:59 | 39.89395 | -75.12868 | 1454 ft | 114 kts | 243° |
| 2026-05-06 01:59 | 39.89192 | -75.13886 | 1326 ft | 119 kts | 244° |
| 2026-05-06 01:59 | 39.88978 | -75.14956 | 1149 ft | 124 kts | 246° |
| 2026-05-06 01:59 | 39.88768 | -75.16028 | 1002 ft | 124 kts | 246° |
| 2026-05-06 02:00 | 39.88544 | -75.17145 | 827 ft | 133 kts | 248° |
| 2026-05-06 02:00 | 39.88305 | -75.18350 | 669 ft | 140 kts | 249° |
| 2026-05-06 02:00 | 39.88057 | -75.19589 | 462 ft | 140 kts | 252° |
| 2026-05-06 02:00 | 39.87832 | -75.20804 | 287 ft | 135 kts | 248° |
| 2026-05-06 02:01 | 39.87590 | -75.21971 | 114 ft | 133 kts | 248° |
| 2026-05-06 02:01 | 39.87364 | -75.23087 | 28 ft | 114 kts | 249° |
| 2026-05-06 02:01 | 39.87200 | -75.23885 | 28 ft | 71 kts | 257° |
| 2026-05-06 02:01 | 39.87115 | -75.24331 | 31 ft | 41 kts | 256° |
| 2026-05-06 02:02 | 39.87051 | -75.24653 | 26 ft | 23 kts | 257° |
| 2026-05-06 02:02 | 39.87078 | -75.24815 | 27 ft | 16 kts | 327° |
| 2026-05-06 02:02 | 39.87125 | -75.24838 | 25 ft | 0 kts | 344° |
| 2026-05-06 02:03 | 39.87125 | -75.24839 | 24 ft | 0 kts | 344° |
| 2026-05-06 02:03 | 39.87163 | -75.24852 | 27 ft | 11 kts | 345° |
| 2026-05-06 02:04 | 39.87179 | -75.24939 | 24 ft | 12 kts | 258° |
| 2026-05-06 02:04 | 39.87151 | -75.25087 | 20 ft | 22 kts | 255° |
| 2026-05-06 02:04 | 39.87113 | -75.25277 | 29 ft | 21 kts | 257° |
| 2026-05-06 02:04 | 39.87137 | -75.25410 | 28 ft | 15 kts | 264° |
| 2026-05-06 02:05 | 39.87112 | -75.25540 | 28 ft | 15 kts | 251° |
| 2026-05-06 02:05 | 39.87095 | -75.25625 | 27 ft | 3 kts | 261° |
| 2026-05-06 02:05 | 39.87089 | -75.25671 | 28 ft | 8 kts | 266° |
| 2026-05-06 02:05 | 39.87102 | -75.25705 | 29 ft | 5 kts | 314° |
| 2026-05-06 02:06 | 39.87141 | -75.25726 | 30 ft | 3 kts | 354° |
| 2026-05-06 02:06 | 39.87163 | -75.25728 | 30 ft | 0 kts | 355° |